Time;durP1;ratioP1;P1;durP2;ratioP2;P2;SDS_P1;SDS_P2;PMS_P1;PMS_P2;Temp;Humidity;BMP_temperature;BMP_pressure;BME280_temperature;BME280_humidity;BME280_pressure;Samples;Min_cycle;Max_cycle;Signal;HPM_P1;HPM_P2
2023/12/08 00:04:28;;;;;;;8.63;4.05;;;;;;;1.35;100.00;101203.94;10461705;28;20036;-70
2023/12/08 00:09:29;;;;;;;5.25;2.53;;;;;;;1.74;100.00;101266.28;10461304;28;20132;-70
2023/12/08 00:14:30;;;;;;;6.97;4.22;;;;;;;1.68;100.00;101250.09;10460992;28;20037;-70
2023/12/08 00:19:31;;;;;;;6.22;3.53;;;;;;;1.63;100.00;101239.03;10460010;28;20048;-70
2023/12/08 00:24:33;;;;;;;7.03;4.05;;;;;;;1.71;100.00;101247.28;10448593;28;20064;-70
2023/12/08 00:29:34;;;;;;;8.80;4.15;;;;;;;1.36;100.00;101182.91;10460118;28;20577;-70
2023/12/08 00:34:34;;;;;;;6.70;4.45;;;;;;;1.41;100.00;101181.78;10459815;28;20040;-70
2023/12/08 00:39:35;;;;;;;9.55;4.63;;;;;;;1.71;100.00;101231.56;10460617;28;20040;-70
2023/12/08 00:44:36;;;;;;;10.45;4.60;;;;;;;1.73;100.00;101220.03;10457633;28;20048;-70
2023/12/08 00:49:37;;;;;;;7.68;4.80;;;;;;;1.72;100.00;101228.00;10459942;28;20036;-71
2023/12/08 00:54:37;;;;;;;9.98;4.63;;;;;;;1.75;100.00;101228.66;10459732;28;20117;-70
2023/12/08 00:59:38;;;;;;;11.32;5.10;;;;;;;1.77;100.00;101236.44;10459204;28;20095;-71
2023/12/08 01:04:39;;;;;;;11.07;4.82;;;;;;;1.78;100.00;101236.34;10459177;28;20040;-70
2023/12/08 01:09:40;;;;;;;15.00;6.00;;;;;;;1.82;100.00;101234.38;10458563;28;20072;-71
2023/12/08 01:14:41;;;;;;;9.82;4.93;;;;;;;1.64;100.00;101210.09;10459665;28;20037;-71
2023/12/08 01:19:41;;;;;;;7.63;4.07;;;;;;;1.77;100.00;101239.06;10459533;28;20040;-70
2023/12/08 01:24:42;;;;;;;11.63;5.22;;;;;;;1.83;100.00;101239.53;10457872;28;20059;-70
2023/12/08 01:29:43;;;;;;;10.45;5.10;;;;;;;1.51;100.00;101196.88;10456445;28;20166;-71
2023/12/08 01:34:44;;;;;;;10.18;5.55;;;;;;;1.86;100.00;101250.78;10458112;28;20041;-70
2023/12/08 01:39:46;;;;;;;15.70;6.35;;;;;;;1.87;100.00;101252.47;10458002;28;20044;-71
2023/12/08 01:44:47;;;;;;;16.23;6.47;;;;;;;1.60;100.00;101212.06;10457797;28;20037;-70
2023/12/08 01:49:49;;;;;;;14.70;6.03;;;;;;;1.89;100.00;101261.94;10456964;28;20041;-71
2023/12/08 01:54:54;;;;;;;14.02;5.90;;;;;;;1.64;100.00;101209.25;10457527;28;20087;-70
2023/12/08 01:59:56;;;;;;;11.93;5.18;;;;;;;1.99;100.00;101270.94;10456106;28;20040;-70
2023/12/08 02:04:59;;;;;;;12.32;5.53;;;;;;;1.70;100.00;101225.47;10446965;28;20041;-70
2023/12/08 02:09:59;;;;;;;10.63;4.97;;;;;;;1.92;100.00;101271.38;10437983;28;20045;-70
2023/12/08 02:15:00;;;;;;;9.98;4.82;;;;;;;1.95;100.00;101279.91;10415004;28;20041;-71
2023/12/08 02:20:05;;;;;;;11.02;5.22;;;;;;;1.92;100.00;101284.50;10427862;28;20148;-70
2023/12/08 02:25:06;;;;;;;8.55;3.97;;;;;;;1.93;100.00;101283.53;10451017;28;20084;-70
2023/12/08 02:30:08;;;;;;;9.32;4.55;;;;;;;1.89;100.00;101300.38;10436932;28;20049;-70
2023/12/08 02:35:09;;;;;;;7.90;4.28;;;;;;;1.82;100.00;101289.41;10415565;28;20036;-70
2023/12/08 02:40:11;;;;;;;9.95;4.00;;;;;;;1.45;100.00;101230.44;10426386;28;20041;-70
2023/12/08 02:45:11;;;;;;;9.15;4.18;;;;;;;1.74;100.00;101268.06;10413056;28;20048;-69
2023/12/08 02:50:12;;;;;;;7.90;3.55;;;;;;;1.47;100.00;101223.34;10416918;28;20045;-71
2023/12/08 02:55:13;;;;;;;11.13;4.38;;;;;;;1.81;100.00;101291.19;10406407;28;20052;-69
2023/12/08 03:00:14;;;;;;;8.57;4.10;;;;;;;1.43;100.00;101229.66;10405722;28;20041;-68
2023/12/08 03:05:15;;;;;;;7.35;3.72;;;;;;;1.33;100.00;101224.97;10408069;28;20045;-71
2023/12/08 03:10:16;;;;;;;6.70;4.43;;;;;;;1.72;100.00;101291.72;10413217;28;20041;-66
2023/12/08 03:15:16;;;;;;;11.80;4.32;;;;;;;1.44;100.00;101247.09;10412825;28;20068;-71
2023/12/08 03:20:17;;;;;;;8.80;4.50;;;;;;;1.73;100.00;101303.88;10413032;28;20072;-71
2023/12/08 03:25:18;;;;;;;12.00;5.30;;;;;;;1.70;100.00;101313.69;10413245;28;20228;-69
2023/12/08 03:30:19;;;;;;;12.30;5.60;;;;;;;1.62;100.00;101308.06;10426655;28;20087;-69
2023/12/08 03:35:20;;;;;;;10.05;4.80;;;;;;;1.60;100.00;101313.38;10454142;28;20497;-69
2023/12/08 03:40:21;;;;;;;23.75;6.18;;;;;;;1.68;100.00;101336.50;10454054;28;20048;-69
2023/12/08 03:45:21;;;;;;;13.48;6.45;;;;;;;1.58;100.00;101325.69;10452796;28;20029;-69
2023/12/08 03:50:22;;;;;;;12.45;5.40;;;;;;;1.60;100.00;101342.16;10453220;28;20041;-69
2023/12/08 03:55:23;;;;;;;18.10;7.97;;;;;;;1.62;100.00;101357.81;10452934;28;20045;-69
2023/12/08 04:00:24;;;;;;;13.90;7.43;;;;;;;1.31;100.00;101307.97;10453406;28;20044;-69
2023/12/08 04:05:24;;;;;;;14.15;7.93;;;;;;;1.52;100.00;101342.59;10453319;28;20033;-69
2023/12/08 04:10:25;;;;;;;16.95;8.77;;;;;;;1.17;100.00;101286.97;10453252;28;20040;-69
2023/12/08 04:15:26;;;;;;;16.48;8.05;;;;;;;1.27;100.00;101311.69;10453248;28;20056;-69
2023/12/08 04:20:27;;;;;;;14.48;7.75;;;;;;;1.53;100.00;101359.16;10454370;28;20051;-69
2023/12/08 04:25:27;;;;;;;15.30;7.05;;;;;;;1.53;100.00;101369.66;10459463;28;20076;-71
2023/12/08 04:30:28;;;;;;;15.75;8.32;;;;;;;0.99;100.00;101277.47;10460153;28;20032;-69
2023/12/08 04:35:29;;;;;;;18.85;8.63;;;;;;;1.17;100.00;101313.13;10460479;28;20119;-69
2023/12/08 04:40:30;;;;;;;20.65;7.97;;;;;;;1.55;100.00;101379.06;10460560;28;20040;-70
2023/12/08 04:45:30;;;;;;;14.23;7.00;;;;;;;1.59;100.00;101385.84;10459378;28;20556;-69
2023/12/08 04:50:32;;;;;;;15.55;6.93;;;;;;;1.27;100.00;101331.78;10459185;28;20070;-69
2023/12/08 04:55:32;;;;;;;11.43;6.63;;;;;;;1.64;100.00;101393.44;10459104;28;20047;-69
2023/12/08 05:00:33;;;;;;;12.05;6.38;;;;;;;1.56;100.00;101379.94;10459636;28;20045;-69
2023/12/08 05:05:34;;;;;;;10.25;6.75;;;;;;;1.65;100.00;101397.78;10458740;28;20036;-69
2023/12/08 05:10:35;;;;;;;13.82;7.13;;;;;;;1.69;100.00;101406.28;10458473;28;20069;-69
2023/12/08 05:15:35;;;;;;;17.73;7.43;;;;;;;1.60;100.00;101391.94;10458993;28;20064;-69
2023/12/08 05:20:36;;;;;;;16.70;7.40;;;;;;;1.67;100.00;101405.53;10457549;28;20041;-68
2023/12/08 05:25:37;;;;;;;16.55;7.20;;;;;;;1.65;100.00;101410.88;10458957;28;20501;-68
2023/12/08 05:30:38;;;;;;;13.68;6.65;;;;;;;1.39;100.00;101365.16;10458364;28;20041;-71
2023/12/08 05:35:38;;;;;;;11.73;6.55;;;;;;;1.59;100.00;101406.81;10457944;28;20033;-70
2023/12/08 05:40:39;;;;;;;12.35;6.80;;;;;;;1.32;100.00;101369.03;10457466;28;20045;-70
2023/12/08 05:45:40;;;;;;;12.77;6.70;;;;;;;1.50;100.00;101407.31;10457661;28;20041;-70
2023/12/08 05:50:41;;;;;;;10.75;6.70;;;;;;;1.33;100.00;101382.03;10457431;28;20102;-70
2023/12/08 05:55:41;;;;;;;13.70;7.00;;;;;;;1.47;100.00;101401.41;10456013;28;20036;-70
2023/12/08 06:00:42;;;;;;;13.02;6.97;;;;;;;1.65;100.00;101437.06;10457095;28;20048;-71
2023/12/08 06:05:43;;;;;;;14.40;7.43;;;;;;;1.60;100.00;101429.44;10458095;28;20048;-71
2023/12/08 06:10:44;;;;;;;13.70;6.28;;;;;;;1.85;100.00;101445.59;10456656;28;20052;-69
2023/12/08 06:15:44;;;;;;;15.65;6.88;;;;;;;1.60;100.00;101386.69;10457073;28;20044;-70
2023/12/08 06:20:45;;;;;;;17.02;8.02;;;;;;;1.94;100.00;101447.69;10455929;28;20045;-70
2023/12/08 06:25:46;;;;;;;13.90;7.00;;;;;;;2.07;100.00;101461.81;10454958;28;20060;-70
2023/12/08 06:30:47;;;;;;;13.23;6.38;;;;;;;1.72;100.00;101399.09;10455966;28;20519;-71
2023/12/08 06:35:47;;;;;;;12.18;6.85;;;;;;;2.07;100.00;101456.56;10455496;28;20032;-70
2023/12/08 06:40:50;;;;;;;15.07;6.80;;;;;;;2.03;100.00;101436.69;10454754;28;20111;-70
2023/12/08 06:45:51;;;;;;;16.15;7.28;;;;;;;2.10;100.00;101456.41;10455093;28;20098;-70
2023/12/08 06:50:52;;;;;;;11.45;6.63;;;;;;;2.16;100.00;101450.81;10455755;28;20055;-70
2023/12/08 06:55:53;;;;;;;13.70;6.50;;;;;;;2.32;100.00;101463.06;10455149;28;20524;-71
2023/12/08 07:00:54;;;;;;;11.60;6.18;;;;;;;2.28;100.00;101446.66;10454113;28;20048;-69
2023/12/08 07:05:55;;;;;;;22.98;5.97;;;;;;;2.29;100.00;101436.06;10455752;28;20048;-70
2023/12/08 07:10:56;;;;;;;10.55;5.68;;;;;;;2.40;100.00;101453.81;10454128;28;20044;-70
2023/12/08 07:15:57;;;;;;;11.57;5.97;;;;;;;2.46;100.00;101440.34;10454501;28;20033;-70
2023/12/08 07:20:58;;;;;;;14.32;6.07;;;;;;;2.49;100.00;101455.91;10453679;28;20048;-69
2023/12/08 07:25:59;;;;;;;9.35;5.07;;;;;;;2.50;100.00;101452.34;10454766;28;20056;-69
2023/12/08 07:31:00;;;;;;;10.15;5.82;;;;;;;2.28;100.00;101412.56;10454994;28;20399;-71
2023/12/08 07:36:00;;;;;;;10.13;5.10;;;;;;;2.62;100.00;101440.28;10454075;28;20127;-71
2023/12/08 07:41:01;;;;;;;13.60;5.90;;;;;;;2.66;100.00;101441.81;10453605;28;20047;-69
2023/12/08 07:46:02;;;;;;;10.93;5.28;;;;;;;2.67;100.00;101425.13;10454458;28;20040;-70
2023/12/08 07:51:03;;;;;;;11.98;5.72;;;;;;;2.79;100.00;101422.72;10453004;28;20036;-71
2023/12/08 07:56:05;;;;;;;11.57;5.80;;;;;;;2.83;100.00;101408.47;10455890;28;20040;-70
2023/12/08 08:01:05;;;;;;;9.93;3.97;;;;;;;2.96;100.00;101393.66;10462252;28;20087;-71
2023/12/08 08:06:07;;;;;;;11.85;5.85;;;;;;;2.94;100.00;101387.69;10461091;28;20045;-70
2023/12/08 08:11:09;;;;;;;9.57;4.72;;;;;;;3.00;100.00;101396.97;10460304;28;20390;-70
2023/12/08 08:16:09;;;;;;;9.55;4.80;;;;;;;3.04;100.00;101401.91;10460588;28;20037;-70
2023/12/08 08:21:10;;;;;;;8.48;4.75;;;;;;;3.03;100.00;101384.50;10460295;28;20045;-70
2023/12/08 08:26:11;;;;;;;8.85;4.90;;;;;;;2.93;100.00;101376.34;10461266;28;20059;-71
2023/12/08 08:31:16;;;;;;;10.85;5.20;;;;;;;2.97;100.00;101363.88;10460983;28;20099;-71
2023/12/08 08:36:17;;;;;;;10.02;4.68;;;;;;;2.97;100.00;101383.09;10459552;28;20043;-69
2023/12/08 08:41:18;;;;;;;13.40;5.68;;;;;;;2.89;100.00;101372.19;10459579;28;20045;-70
2023/12/08 08:46:19;;;;;;;11.63;5.40;;;;;;;2.61;100.00;101310.06;10460141;28;20401;-69
2023/12/08 08:51:19;;;;;;;12.18;5.00;;;;;;;2.88;100.00;101346.06;10459995;28;20033;-70
2023/12/08 08:56:20;;;;;;;14.82;5.22;;;;;;;2.90;100.00;101358.16;10459141;28;20468;-70
2023/12/08 09:01:21;;;;;;;10.38;4.65;;;;;;;2.89;100.00;101343.31;10459489;28;20432;-70
2023/12/08 09:06:22;;;;;;;12.88;4.28;;;;;;;2.72;100.00;101310.28;10459485;28;20071;-69
2023/12/08 09:11:22;;;;;;;9.80;5.03;;;;;;;3.07;100.00;101351.00;10458399;28;20041;-69
2023/12/08 09:16:23;;;;;;;11.73;5.38;;;;;;;3.11;100.00;101352.50;10459972;28;20045;-68
2023/12/08 09:21:24;;;;;;;12.45;4.93;;;;;;;3.13;100.00;101355.88;10459798;28;20041;-71
2023/12/08 09:26:25;;;;;;;9.15;4.90;;;;;;;3.12;100.00;101347.16;10457687;28;20053;-70
2023/12/08 09:31:26;;;;;;;10.98;5.30;;;;;;;3.15;100.00;101349.59;10458551;28;20048;-70
2023/12/08 09:36:27;;;;;;;7.78;4.28;;;;;;;3.22;100.00;101350.06;10458726;28;20040;-70
2023/12/08 09:41:27;;;;;;;13.25;4.93;;;;;;;3.21;100.00;101358.88;10457938;28;20107;-70
2023/12/08 09:46:30;;;;;;;13.52;4.75;;;;;;;2.94;100.00;101304.53;10441553;28;20448;-70
2023/12/08 09:51:31;;;;;;;10.02;4.82;;;;;;;3.34;100.00;101344.03;10415113;28;20480;-70
2023/12/08 09:56:32;;;;;;;9.65;4.85;;;;;;;3.33;100.00;101338.88;10415461;28;20060;-69
2023/12/08 10:01:33;;;;;;;11.57;4.22;;;;;;;3.33;100.00;101328.38;10415750;28;20045;-69
2023/12/08 10:06:37;;;;;;;11.63;5.03;;;;;;;3.36;100.00;101317.69;10432555;28;20041;-68
2023/12/08 10:11:42;;;;;;;15.48;4.13;;;;;;;3.13;100.00;101270.09;10451450;28;20048;-69
2023/12/08 10:16:46;;;;;;;11.48;4.45;;;;;;;3.40;100.00;101317.38;10450397;28;20404;-70
2023/12/08 10:22:05;;;;;;;9.55;4.72;;;;;;;3.21;100.00;101266.97;10434735;28;20046;-69
2023/12/08 10:27:09;;;;;;;11.90;4.80;;;;;;;3.46;100.00;101331.91;10449995;28;20127;-69
2023/12/08 10:32:09;;;;;;;8.30;3.72;;;;;;;3.47;100.00;101340.63;10448699;28;20047;-70
2023/12/08 10:37:10;;;;;;;8.27;4.70;;;;;;;3.45;100.00;101353.03;10446892;28;20053;-69
2023/12/08 10:42:11;;;;;;;7.68;4.45;;;;;;;3.51;100.00;101356.09;10427132;28;20474;-69
2023/12/08 10:47:12;;;;;;;9.88;4.32;;;;;;;3.54;100.00;101348.03;10407941;28;20520;-69
2023/12/08 10:52:15;;;;;;;8.23;4.70;;;;;;;3.58;100.00;101346.03;10410009;28;20045;-70
2023/12/08 10:57:16;;;;;;;9.50;4.30;;;;;;;3.59;100.00;101351.22;10402902;28;20816;-69
2023/12/08 11:02:24;;;;;;;11.30;4.45;;;;;;;3.57;100.00;101363.59;10423146;28;20555;-70
2023/12/08 11:07:32;;;;;;;11.60;4.28;;;;;;;3.67;100.00;101350.72;10453741;28;20051;-70
2023/12/08 11:12:48;;;;;;;10.25;3.85;;;;;;;3.43;100.00;101314.56;10454135;28;20072;-73
2023/12/08 11:18:11;;;;;;;9.38;3.50;;;;;;;3.48;100.00;101329.19;10454526;28;20040;-69
2023/12/08 11:23:12;;;;;;;6.50;3.08;;;;;;;3.45;100.00;101321.50;10454362;28;20455;-69
2023/12/08 11:28:23;;;;;;;9.02;4.60;;;;;;;3.57;100.00;101366.22;10453624;28;20044;-70
2023/12/08 11:33:43;;;;;;;12.02;4.72;;;;;;;3.57;100.00;101347.84;10468006;28;20044;-68
2023/12/08 11:38:44;;;;;;;10.38;4.15;;;;;;;3.51;100.00;101344.75;10465307;28;20045;-71
2023/12/08 11:43:45;;;;;;;7.00;3.80;;;;;;;3.50;100.00;101357.06;10468123;28;20066;-69
2023/12/08 11:48:51;;;;;;;8.35;3.92;;;;;;;3.38;100.00;101344.69;10466705;28;20077;-69
2023/12/08 11:53:57;;;;;;;10.25;3.15;;;;;;;3.42;100.00;101344.41;10468178;28;20511;-66
2023/12/08 11:59:01;;;;;;;11.35;3.58;;;;;;;3.31;100.00;101332.88;10450097;28;20076;-70
2023/12/08 12:04:01;;;;;;;8.93;4.30;;;;;;;3.22;100.00;101323.81;10462145;28;20501;-73
2023/12/08 12:09:04;;;;;;;11.05;4.07;;;;;;;3.27;100.00;101337.50;10467014;28;20047;-71
2023/12/08 12:14:09;;;;;;;10.05;3.53;;;;;;;3.39;100.00;101347.22;10461012;28;20056;-71
2023/12/08 12:19:10;;;;;;;6.63;3.92;;;;;;;3.33;100.00;101355.50;10461177;28;20408;-72
2023/12/08 12:24:11;;;;;;;12.20;3.65;;;;;;;3.24;100.00;101347.34;10461069;28;20053;-69
2023/12/08 12:29:12;;;;;;;9.00;4.32;;;;;;;3.15;100.00;101360.09;10461327;28;20091;-68
2023/12/08 12:34:15;;;;;;;8.18;3.55;;;;;;;3.18;100.00;101377.47;10437994;28;20108;-70
2023/12/08 12:39:16;;;;;;;16.42;4.40;;;;;;;2.74;100.00;101308.38;10464183;28;20417;-70
2023/12/08 12:44:17;;;;;;;6.93;3.60;;;;;;;3.07;100.00;101366.75;10459384;28;20045;-70
2023/12/08 12:49:18;;;;;;;6.30;2.92;;;;;;;3.10;100.00;101361.31;10459655;28;20465;-69
2023/12/08 12:54:31;;;;;;;7.13;2.80;;;;;;;2.92;100.00;101347.56;10460572;28;20548;-70
2023/12/08 12:59:32;;;;;;;10.40;3.70;;;;;;;2.95;100.00;101365.75;10459473;28;20049;-70
2023/12/08 13:04:32;;;;;;;7.97;3.67;;;;;;;2.78;100.00;101356.25;10454963;28;20276;-70
2023/12/08 13:09:33;;;;;;;9.00;4.40;;;;;;;2.97;100.00;101392.75;10432000;28;20049;-69
2023/12/08 13:14:34;;;;;;;12.20;4.45;;;;;;;2.45;100.00;101332.88;10450166;28;20041;-68
2023/12/08 13:19:35;;;;;;;8.10;3.83;;;;;;;2.62;100.00;101372.09;10421046;28;20045;-71
2023/12/08 13:24:36;;;;;;;9.85;3.42;;;;;;;2.70;100.00;101405.75;10416224;28;20046;-70
2023/12/08 13:29:36;;;;;;;11.77;4.47;;;;;;;2.44;100.00;101375.81;10433636;28;20052;-71
2023/12/08 13:34:37;;;;;;;11.70;4.70;;;;;;;2.61;100.00;101422.88;10424036;28;20045;-68
2023/12/08 13:39:38;;;;;;;11.95;4.45;;;;;;;2.58;100.00;101411.72;10409573;28;20049;-70
2023/12/08 13:44:39;;;;;;;8.40;3.90;;;;;;;2.24;100.00;101366.47;10418322;28;20515;-71
2023/12/08 13:49:46;;;;;;;8.82;4.40;;;;;;;2.07;100.00;101346.50;10413550;28;20124;-70
2023/12/08 13:54:47;;;;;;;9.63;4.38;;;;;;;2.40;100.00;101411.03;10420585;28;20037;-70
2023/12/08 13:59:48;;;;;;;8.73;4.60;;;;;;;2.44;100.00;101404.66;10429581;28;20535;-71
2023/12/08 14:04:49;;;;;;;5.40;3.08;;;;;;;2.42;100.00;101399.50;10422329;28;20041;-70
2023/12/08 14:09:50;;;;;;;8.02;4.25;;;;;;;2.35;100.00;101395.53;10442002;28;20037;-70
2023/12/08 14:14:51;;;;;;;6.25;3.13;;;;;;;2.37;100.00;101405.94;10441347;28;20482;-69
2023/12/08 14:19:51;;;;;;;6.78;3.22;;;;;;;2.39;100.00;101397.03;10454251;28;20447;-69
2023/12/08 14:24:54;;;;;;;11.55;4.78;;;;;;;2.28;100.00;101394.22;10453580;28;20052;-68
2023/12/08 14:29:54;;;;;;;5.60;2.78;;;;;;;2.33;100.00;101409.66;10455623;28;20049;-68
2023/12/08 14:34:56;;;;;;;8.57;4.68;;;;;;;2.17;100.00;101410.56;10454669;28;20451;-68
2023/12/08 14:40:00;;;;;;;12.02;5.53;;;;;;;2.24;100.00;101413.66;10455404;28;20047;-68
2023/12/08 14:45:00;;;;;;;9.47;4.63;;;;;;;2.18;100.00;101414.84;10455025;28;20044;-68
2023/12/08 14:50:03;;;;;;;10.30;4.60;;;;;;;2.25;100.00;101426.69;10455150;28;20275;-68
2023/12/08 14:55:09;;;;;;;16.30;5.72;;;;;;;2.19;100.00;101402.63;10455839;28;20497;-69
2023/12/08 15:00:11;;;;;;;11.25;5.82;;;;;;;2.04;100.00;101394.69;10454237;28;20404;-69
2023/12/08 15:05:12;;;;;;;11.02;5.43;;;;;;;1.97;100.00;101384.63;10455252;28;20052;-69
2023/12/08 15:10:13;;;;;;;11.02;5.85;;;;;;;2.03;100.00;101394.75;10435265;28;20090;-68
2023/12/08 15:15:13;;;;;;;13.55;6.50;;;;;;;1.46;100.00;101300.19;10439209;28;20053;-68
2023/12/08 15:20:14;;;;;;;16.83;5.60;;;;;;;2.02;100.00;101414.88;10412800;28;20041;-69
2023/12/08 15:25:15;;;;;;;12.13;6.03;;;;;;;2.00;100.00;101403.63;10409404;28;20520;-69
2023/12/08 15:30:16;;;;;;;19.70;6.82;;;;;;;1.93;100.00;101398.84;10432105;28;20045;-68
2023/12/08 15:35:17;;;;;;;8.48;5.40;;;;;;;1.95;100.00;101408.31;10444725;28;20046;-69
2023/12/08 15:40:18;;;;;;;14.65;6.18;;;;;;;1.88;100.00;101401.72;10453845;28;20154;-69
2023/12/08 15:45:21;;;;;;;7.35;3.47;;;;;;;1.93;100.00;101404.91;10453398;28;20041;-68
2023/12/08 15:50:22;;;;;;;11.07;5.63;;;;;;;1.86;100.00;101402.75;10454514;28;20516;-69
2023/12/08 15:55:23;;;;;;;10.52;4.95;;;;;;;1.54;100.00;101353.81;10427569;28;20102;-69
2023/12/08 16:00:24;;;;;;;14.25;5.93;;;;;;;1.64;100.00;101366.41;10451139;28;20045;-70
2023/12/08 16:05:24;;;;;;;11.32;5.93;;;;;;;1.58;100.00;101362.34;10454168;28;20065;-69
2023/12/08 16:10:25;;;;;;;13.93;6.10;;;;;;;1.73;100.00;101376.38;10453439;28;20045;-69
2023/12/08 16:15:26;;;;;;;11.52;5.47;;;;;;;1.67;100.00;101388.03;10432243;28;20064;-69
2023/12/08 16:20:27;;;;;;;13.13;6.03;;;;;;;1.57;100.00;101376.38;10419928;28;20535;-69
2023/12/08 16:25:28;;;;;;;11.88;6.13;;;;;;;1.63;100.00;101390.94;10420520;28;20057;-68
2023/12/08 16:30:28;;;;;;;10.15;5.05;;;;;;;1.63;100.00;101393.53;10445849;28;20563;-68
2023/12/08 16:35:29;;;;;;;11.30;6.18;;;;;;;1.62;100.00;101390.09;10460523;28;20037;-68
2023/12/08 16:40:30;;;;;;;11.65;6.22;;;;;;;1.65;100.00;101384.69;10459956;28;20044;-68
2023/12/08 16:45:34;;;;;;;10.63;5.50;;;;;;;1.61;100.00;101377.91;10460872;28;20124;-68
2023/12/08 16:50:35;;;;;;;10.03;5.87;;;;;;;1.62;100.00;101384.84;10460138;28;20033;-68
2023/12/08 16:55:35;;;;;;;12.15;5.90;;;;;;;0.68;100.00;101239.91;10459446;28;20501;-68
2023/12/08 17:00:36;;;;;;;11.98;6.00;;;;;;;1.68;100.00;101396.75;10460034;28;20501;-68
2023/12/08 17:05:37;;;;;;;13.23;5.97;;;;;;;1.68;100.00;101394.97;10459274;28;20045;-68
2023/12/08 17:10:38;;;;;;;11.20;5.78;;;;;;;1.68;100.00;101399.38;10459315;28;20496;-68
2023/12/08 17:15:39;;;;;;;9.63;5.55;;;;;;;1.03;100.00;101292.09;10459312;28;20045;-67
2023/12/08 17:20:39;;;;;;;9.25;5.35;;;;;;;1.55;100.00;101384.31;10458182;28;20071;-67
2023/12/08 17:25:40;;;;;;;11.70;5.70;;;;;;;1.55;100.00;101376.47;10459667;28;20118;-68
2023/12/08 17:30:41;;;;;;;10.55;5.80;;;;;;;1.01;100.00;101270.41;10458150;28;20135;-68
2023/12/08 17:35:42;;;;;;;9.55;5.40;;;;;;;1.56;100.00;101365.06;10458836;28;20071;-67
2023/12/08 17:40:43;;;;;;;10.30;5.40;;;;;;;1.47;100.00;101362.97;10457677;28;20041;-68
2023/12/08 17:45:44;;;;;;;9.70;6.28;;;;;;;1.36;100.00;101353.06;10457372;28;20041;-68
2023/12/08 17:50:45;;;;;;;9.65;5.53;;;;;;;1.10;100.00;101307.38;10457219;28;20124;-68
2023/12/08 17:55:46;;;;;;;11.13;5.70;;;;;;;1.46;100.00;101373.50;10457000;28;20041;-68
2023/12/08 18:00:46;;;;;;;12.07;5.32;;;;;;;1.48;100.00;101350.72;10457262;28;20396;-69
2023/12/08 18:05:47;;;;;;;10.82;5.30;;;;;;;1.44;100.00;101352.66;10424394;28;20056;-68
2023/12/08 18:10:48;;;;;;;14.13;6.00;;;;;;;1.13;100.00;101303.75;10454274;28;20041;-70
2023/12/08 18:15:49;;;;;;;13.88;5.80;;;;;;;1.10;100.00;101289.06;10455623;28;20127;-70
2023/12/08 18:20:50;;;;;;;12.30;5.97;;;;;;;1.48;100.00;101337.63;10456455;28;20041;-70
2023/12/08 18:25:53;;;;;;;13.40;5.85;;;;;;;1.27;100.00;101293.38;10456040;28;20057;-69
2023/12/08 18:30:54;;;;;;;7.78;5.50;;;;;;;1.45;100.00;101328.16;10455664;28;20492;-69
2023/12/08 18:35:55;;;;;;;9.60;5.28;;;;;;;1.46;100.00;101339.47;10455990;28;20115;-70
2023/12/08 18:40:55;;;;;;;10.23;5.72;;;;;;;1.37;100.00;101312.03;10455223;28;20041;-70
2023/12/08 18:45:56;;;;;;;9.50;5.40;;;;;;;1.42;100.00;101319.63;10454890;28;20037;-70
2023/12/08 18:50:57;;;;;;;11.80;5.63;;;;;;;1.30;100.00;101276.66;10455466;28;20068;-70
2023/12/08 18:55:58;;;;;;;15.68;5.97;;;;;;;1.54;100.00;101304.06;10454711;28;20072;-69
2023/12/08 19:00:59;;;;;;;10.18;5.15;;;;;;;1.59;100.00;101295.97;10454943;28;20055;-70
2023/12/08 19:06:00;;;;;;;7.00;4.07;;;;;;;1.57;100.00;101292.59;10454345;28;20120;-70
2023/12/08 19:11:01;;;;;;;13.25;5.95;;;;;;;1.28;100.00;101244.47;10454853;28;20044;-69
2023/12/08 19:16:04;;;;;;;10.35;5.10;;;;;;;1.29;100.00;101241.78;10454472;28;20033;-69
2023/12/08 19:21:07;;;;;;;11.05;5.82;;;;;;;1.63;100.00;101286.16;10454453;28;20044;-69
2023/12/08 19:26:08;;;;;;;10.90;6.18;;;;;;;1.67;100.00;101272.78;10453874;28;20410;-70
2023/12/08 19:31:09;;;;;;;13.05;5.60;;;;;;;1.64;100.00;101265.09;10453349;28;20036;-69
2023/12/08 19:36:10;;;;;;;13.40;6.47;;;;;;;1.36;100.00;101216.94;10453141;28;20097;-70
2023/12/08 19:41:11;;;;;;;13.23;5.90;;;;;;;1.69;100.00;101281.41;10454560;28;20053;-70
2023/12/08 19:46:12;;;;;;;16.60;7.22;;;;;;;1.36;100.00;101210.88;10454732;28;20040;-69
2023/12/08 19:51:13;;;;;;;14.95;6.38;;;;;;;1.49;100.00;101216.22;10453658;28;20037;-70
2023/12/08 19:56:14;;;;;;;12.02;5.10;;;;;;;1.36;100.00;101193.38;10425569;28;20053;-70
2023/12/08 20:01:16;;;;;;;11.82;4.88;;;;;;;1.83;100.00;101247.41;10459393;28;20118;-70
2023/12/08 20:06:17;;;;;;;14.18;6.43;;;;;;;1.54;100.00;101206.34;10460669;28;20037;-71
2023/12/08 20:11:18;;;;;;;12.50;5.03;;;;;;;1.89;100.00;101246.22;10462324;28;20517;-70
2023/12/08 20:16:19;;;;;;;10.23;5.35;;;;;;;1.90;100.00;101244.44;10461366;28;20041;-69
2023/12/08 20:21:19;;;;;;;8.55;5.72;;;;;;;1.89;100.00;101242.75;10461095;28;20040;-70
2023/12/08 20:26:20;;;;;;;14.63;6.88;;;;;;;1.70;100.00;101195.81;10461401;28;20446;-69
2023/12/08 20:31:22;;;;;;;22.85;6.85;;;;;;;2.00;100.00;101230.66;10460347;28;20064;-69
2023/12/08 20:36:23;;;;;;;15.82;6.53;;;;;;;2.03;100.00;101238.38;10461038;28;20041;-69
2023/12/08 20:41:24;;;;;;;10.35;6.05;;;;;;;1.80;100.00;101199.59;10460281;28;20045;-70
2023/12/08 20:46:24;;;;;;;13.32;6.70;;;;;;;2.00;100.00;101232.44;10460825;28;20378;-70
2023/12/08 20:51:25;;;;;;;25.73;6.13;;;;;;;1.90;100.00;101211.19;10459454;28;20041;-69
2023/12/08 20:56:26;;;;;;;10.43;5.63;;;;;;;1.86;100.00;101182.66;10459474;28;20059;-69
2023/12/08 21:01:27;;;;;;;12.27;6.40;;;;;;;2.14;100.00;101222.00;10460055;28;20362;-70
2023/12/08 21:06:28;;;;;;;14.70;6.20;;;;;;;2.04;100.00;101194.66;10459588;28;20037;-70
2023/12/08 21:11:30;;;;;;;17.38;6.13;;;;;;;2.10;100.00;101211.81;10458734;28;20538;-69
2023/12/08 21:16:30;;;;;;;10.63;5.43;;;;;;;2.07;100.00;101198.88;10458983;28;20112;-70
2023/12/08 21:21:31;;;;;;;11.77;4.95;;;;;;;2.21;100.00;101214.59;10451230;28;20480;-70
2023/12/08 21:26:32;;;;;;;11.73;5.80;;;;;;;2.20;100.00;101203.28;10411580;28;20045;-69
2023/12/08 21:31:33;;;;;;;12.05;5.47;;;;;;;2.24;100.00;101214.41;10377061;28;20052;-69
2023/12/08 21:36:34;;;;;;;9.95;5.38;;;;;;;2.27;100.00;101211.59;10376108;28;20478;-69
2023/12/08 21:41:35;;;;;;;10.25;5.07;;;;;;;2.09;100.00;101169.00;10376232;28;20048;-69
2023/12/08 21:46:36;;;;;;;10.85;5.50;;;;;;;2.32;100.00;101208.72;10375222;28;20069;-70
2023/12/08 21:51:37;;;;;;;9.65;6.18;;;;;;;2.27;100.00;101188.00;10413800;28;20590;-70
2023/12/08 21:56:37;;;;;;;12.35;5.85;;;;;;;2.36;100.00;101197.09;10416398;28;20076;-70
2023/12/08 22:01:43;;;;;;;12.60;5.65;;;;;;;2.00;100.00;101133.72;10416279;28;20543;-69
2023/12/08 22:06:44;;;;;;;12.32;5.45;;;;;;;2.38;100.00;101189.97;10416822;28;20053;-70
2023/12/08 22:11:45;;;;;;;11.70;5.50;;;;;;;2.35;100.00;101169.19;10415565;28;20033;-69
2023/12/08 22:16:46;;;;;;;11.07;5.00;;;;;;;1.97;100.00;101112.09;10413924;28;20538;-70
2023/12/08 22:21:46;;;;;;;15.57;5.25;;;;;;;2.32;100.00;101161.53;10417058;28;20408;-69
2023/12/08 22:26:47;;;;;;;10.25;4.82;;;;;;;2.37;100.00;101157.69;10456498;28;20045;-69
2023/12/08 22:31:48;;;;;;;8.95;4.65;;;;;;;2.31;100.00;101151.97;10456056;28;20118;-69
2023/12/08 22:36:49;;;;;;;11.88;5.05;;;;;;;2.34;100.00;101147.38;10456101;28;20555;-69
2023/12/08 22:41:50;;;;;;;7.30;3.85;;;;;;;2.41;100.00;101159.16;10454005;28;20043;-70
2023/12/08 22:46:51;;;;;;;11.48;4.25;;;;;;;2.23;100.00;101124.44;10455999;28;20051;-69
2023/12/08 22:51:52;;;;;;;6.10;3.42;;;;;;;2.31;100.00;101123.13;10453665;28;20045;-69
2023/12/08 22:56:52;;;;;;;9.60;4.55;;;;;;;2.54;100.00;101158.38;10454521;28;20059;-69